TRA081 EHAM-EHEH
Flight info
| Callsign | TRA081 |
|---|---|
| Flight time | 0h 17m |
| Altitude | 7000 |
| Route | LOPIK |
| Aircraft | A21N/M-SDE2E3FGHIJ1RWXY/LB1 |
Departure
| Time | 2026-04-18 09:54 |
|---|---|
| Airport | Amsterdam Airport Schiphol (EHAM) |
Arrival
| Time | 2026-04-18 10:12 |
|---|---|
| Airport | Eindhoven Airport (EHEH) |
| Time | Latitude | Longitude | Altitude | Speed | Heading |
|---|---|---|---|---|---|
| 2026-04-18 08:56 | 52.30712 | 4.76956 | 4 ft | 0 kts | 33° |
| 2026-04-18 09:46 | 52.30701 | 4.76944 | 4 ft | 4 kts | 33° |
| 2026-04-18 09:46 | 52.30679 | 4.76921 | 4 ft | 3 kts | 36° |
| 2026-04-18 09:46 | 52.30663 | 4.76900 | 5 ft | 4 kts | 55° |
| 2026-04-18 09:47 | 52.30658 | 4.76871 | 5 ft | 4 kts | 126° |
| 2026-04-18 09:47 | 52.30678 | 4.76847 | 4 ft | 4 kts | 154° |
| 2026-04-18 09:47 | 52.30699 | 4.76830 | 4 ft | 2 kts | 148° |
| 2026-04-18 09:47 | 52.30699 | 4.76829 | 4 ft | 0 kts | 148° |
| 2026-04-18 09:51 | 52.30697 | 4.76831 | 4 ft | 1 kts | 148° |
| 2026-04-18 09:51 | 52.30676 | 4.76854 | 5 ft | 5 kts | 138° |
| 2026-04-18 09:51 | 52.30659 | 4.76931 | 5 ft | 9 kts | 101° |
| 2026-04-18 09:51 | 52.30621 | 4.77014 | 5 ft | 9 kts | 150° |
| 2026-04-18 09:52 | 52.30560 | 4.77075 | 4 ft | 12 kts | 148° |
| 2026-04-18 09:52 | 52.30483 | 4.77152 | 4 ft | 14 kts | 148° |
| 2026-04-18 09:52 | 52.30430 | 4.77207 | 4 ft | 6 kts | 148° |
| 2026-04-18 09:52 | 52.30390 | 4.77262 | 4 ft | 9 kts | 123° |
| 2026-04-18 09:53 | 52.30351 | 4.77355 | 2 ft | 11 kts | 139° |
| 2026-04-18 09:53 | 52.30302 | 4.77345 | 2 ft | 7 kts | 232° |
| 2026-04-18 09:53 | 52.30271 | 4.77262 | 1 ft | 10 kts | 239° |
| 2026-04-18 09:53 | 52.30221 | 4.77133 | 2 ft | 21 kts | 237° |
| 2026-04-18 09:54 | 52.29981 | 4.76509 | 3 ft | 110 kts | 238° |
| 2026-04-18 09:54 | 52.29439 | 4.75108 | 137 ft | 166 kts | 239° |
| 2026-04-18 09:54 | 52.28841 | 4.73560 | 1249 ft | 160 kts | 239° |
| 2026-04-18 09:54 | 52.28230 | 4.71977 | 2228 ft | 171 kts | 239° |
| 2026-04-18 09:55 | 52.27566 | 4.70253 | 3127 ft | 189 kts | 239° |
| 2026-04-18 09:55 | 52.26599 | 4.68582 | 3911 ft | 224 kts | 214° |
| 2026-04-18 09:55 | 52.25590 | 4.67972 | 4590 ft | 244 kts | 193° |
| 2026-04-18 09:55 | 52.23842 | 4.68294 | 5686 ft | 265 kts | 165° |
| 2026-04-18 09:56 | 52.22279 | 4.69994 | 6556 ft | 278 kts | 141° |
| 2026-04-18 09:56 | 52.20909 | 4.72255 | 6970 ft | 281 kts | 139° |
| 2026-04-18 09:56 | 52.19523 | 4.74505 | 7138 ft | 281 kts | 140° |
| 2026-04-18 09:56 | 52.18111 | 4.76700 | 7196 ft | 279 kts | 141° |
| 2026-04-18 09:57 | 52.16688 | 4.78847 | 7222 ft | 279 kts | 142° |
| 2026-04-18 09:57 | 52.15249 | 4.80976 | 7228 ft | 279 kts | 142° |
| 2026-04-18 09:57 | 52.13812 | 4.83081 | 7233 ft | 279 kts | 142° |
| 2026-04-18 09:57 | 52.12367 | 4.85189 | 7226 ft | 279 kts | 142° |
| 2026-04-18 09:58 | 52.10921 | 4.87289 | 7221 ft | 279 kts | 142° |
| 2026-04-18 09:58 | 52.09472 | 4.89381 | 7218 ft | 279 kts | 143° |
| 2026-04-18 09:58 | 52.08018 | 4.91476 | 7208 ft | 280 kts | 142° |
| 2026-04-18 09:58 | 52.06556 | 4.93579 | 7210 ft | 281 kts | 142° |
| 2026-04-18 09:59 | 52.05092 | 4.95689 | 7211 ft | 281 kts | 142° |
| 2026-04-18 09:59 | 52.03629 | 4.97796 | 7212 ft | 281 kts | 142° |
| 2026-04-18 09:59 | 52.02165 | 4.99899 | 7209 ft | 281 kts | 142° |
| 2026-04-18 10:00 | 51.99234 | 5.04101 | 7215 ft | 281 kts | 143° |
| 2026-04-18 10:00 | 51.97774 | 5.06194 | 7221 ft | 281 kts | 143° |
| 2026-04-18 10:00 | 51.96309 | 5.08292 | 7219 ft | 281 kts | 143° |
| 2026-04-18 10:00 | 51.94842 | 5.10387 | 7219 ft | 281 kts | 143° |
| 2026-04-18 10:01 | 51.93292 | 5.12213 | 7163 ft | 275 kts | 151° |
| 2026-04-18 10:01 | 51.91682 | 5.13893 | 6986 ft | 277 kts | 152° |
| 2026-04-18 10:01 | 51.90062 | 5.15580 | 6852 ft | 277 kts | 151° |
| 2026-04-18 10:01 | 51.88450 | 5.17274 | 6737 ft | 276 kts | 151° |
| 2026-04-18 10:02 | 51.86840 | 5.18971 | 6597 ft | 276 kts | 151° |
| 2026-04-18 10:02 | 51.85233 | 5.20663 | 6447 ft | 275 kts | 151° |
| 2026-04-18 10:02 | 51.83637 | 5.22348 | 6178 ft | 274 kts | 151° |
| 2026-04-18 10:02 | 51.82041 | 5.24033 | 5863 ft | 274 kts | 151° |
| 2026-04-18 10:03 | 51.80445 | 5.25719 | 5533 ft | 274 kts | 150° |
| 2026-04-18 10:03 | 51.78852 | 5.27400 | 5199 ft | 274 kts | 150° |
| 2026-04-18 10:03 | 51.77257 | 5.29080 | 4766 ft | 273 kts | 150° |
| 2026-04-18 10:03 | 51.75667 | 5.30754 | 4330 ft | 272 kts | 150° |
| 2026-04-18 10:04 | 51.74101 | 5.32402 | 3938 ft | 271 kts | 150° |
| 2026-04-18 10:04 | 51.72536 | 5.34050 | 3569 ft | 267 kts | 150° |
| 2026-04-18 10:04 | 51.70984 | 5.35681 | 3207 ft | 264 kts | 150° |
| 2026-04-18 10:04 | 51.69463 | 5.37280 | 2984 ft | 256 kts | 150° |
| 2026-04-18 10:05 | 51.68015 | 5.38806 | 2943 ft | 241 kts | 149° |
| 2026-04-18 10:05 | 51.66660 | 5.40233 | 2953 ft | 225 kts | 150° |
| 2026-04-18 10:05 | 51.65388 | 5.41562 | 2954 ft | 210 kts | 150° |
| 2026-04-18 10:05 | 51.64240 | 5.42877 | 2954 ft | 199 kts | 140° |
| 2026-04-18 10:06 | 51.63387 | 5.44620 | 2876 ft | 196 kts | 126° |
| 2026-04-18 10:06 | 51.62660 | 5.46415 | 2783 ft | 186 kts | 126° |
| 2026-04-18 10:06 | 51.61959 | 5.48122 | 2641 ft | 181 kts | 126° |
| 2026-04-18 10:06 | 51.61248 | 5.49821 | 2413 ft | 183 kts | 127° |
| 2026-04-18 10:07 | 51.60514 | 5.51480 | 2157 ft | 181 kts | 131° |
| 2026-04-18 10:07 | 51.59569 | 5.52693 | 1979 ft | 170 kts | 167° |
| 2026-04-18 10:07 | 51.58442 | 5.52611 | 1983 ft | 166 kts | 206° |
| 2026-04-18 10:07 | 51.57459 | 5.51666 | 2005 ft | 164 kts | 217° |
| 2026-04-18 10:08 | 51.56552 | 5.50566 | 1997 ft | 164 kts | 219° |
| 2026-04-18 10:08 | 51.55636 | 5.49458 | 2002 ft | 164 kts | 218° |
| 2026-04-18 10:08 | 51.54725 | 5.48386 | 1973 ft | 157 kts | 217° |
| 2026-04-18 10:08 | 51.53918 | 5.47469 | 1969 ft | 128 kts | 218° |
| 2026-04-18 10:09 | 51.53204 | 5.46661 | 1823 ft | 125 kts | 217° |
| 2026-04-18 10:09 | 51.52491 | 5.45857 | 1697 ft | 125 kts | 217° |
| 2026-04-18 10:09 | 51.51779 | 5.45055 | 1518 ft | 121 kts | 217° |
| 2026-04-18 10:09 | 51.51107 | 5.44299 | 1353 ft | 118 kts | 217° |
| 2026-04-18 10:10 | 51.50432 | 5.43539 | 1185 ft | 117 kts | 217° |
| 2026-04-18 10:10 | 51.49775 | 5.42800 | 1027 ft | 117 kts | 217° |
| 2026-04-18 10:10 | 51.49101 | 5.42044 | 875 ft | 119 kts | 217° |
| 2026-04-18 10:10 | 51.48426 | 5.41284 | 728 ft | 118 kts | 217° |
| 2026-04-18 10:11 | 51.47748 | 5.40527 | 578 ft | 118 kts | 217° |
| 2026-04-18 10:11 | 51.47079 | 5.39773 | 396 ft | 118 kts | 218° |
| 2026-04-18 10:11 | 51.46405 | 5.39012 | 237 ft | 117 kts | 218° |
| 2026-04-18 10:11 | 51.45733 | 5.38260 | 94 ft | 118 kts | 217° |
| 2026-04-18 10:12 | 51.45143 | 5.37597 | 84 ft | 81 kts | 216° |
| 2026-04-18 10:12 | 51.44832 | 5.37249 | 81 ft | 29 kts | 215° |
| 2026-04-18 10:12 | 51.44733 | 5.37136 | 82 ft | 8 kts | 234° |
| 2026-04-18 10:12 | 51.44755 | 5.37042 | 84 ft | 11 kts | 316° |
| 2026-04-18 10:13 | 51.44815 | 5.36968 | 81 ft | 8 kts | 3° |
| 2026-04-18 10:13 | 51.44875 | 5.37018 | 82 ft | 12 kts | 35° |
| 2026-04-18 10:13 | 51.44951 | 5.37104 | 84 ft | 15 kts | 36° |
| 2026-04-18 10:13 | 51.45046 | 5.37209 | 82 ft | 18 kts | 34° |
| 2026-04-18 10:14 | 51.45158 | 5.37334 | 82 ft | 21 kts | 34° |
| 2026-04-18 10:14 | 51.45286 | 5.37478 | 81 ft | 24 kts | 35° |
| 2026-04-18 10:14 | 51.45428 | 5.37637 | 83 ft | 26 kts | 35° |
| 2026-04-18 10:14 | 51.45583 | 5.37811 | 84 ft | 29 kts | 35° |
| 2026-04-18 10:15 | 51.45755 | 5.38003 | 83 ft | 23 kts | 34° |
| 2026-04-18 10:15 | 51.45877 | 5.38139 | 82 ft | 20 kts | 35° |
| 2026-04-18 10:15 | 51.45965 | 5.38238 | 83 ft | 10 kts | 35° |
| 2026-04-18 10:15 | 51.45997 | 5.38296 | 83 ft | 8 kts | 85° |
| 2026-04-18 10:16 | 51.45964 | 5.38391 | 82 ft | 12 kts | 126° |
| 2026-04-18 10:16 | 51.45903 | 5.38523 | 85 ft | 16 kts | 126° |
| 2026-04-18 10:16 | 51.45837 | 5.38675 | 82 ft | 13 kts | 125° |
| 2026-04-18 10:16 | 51.45798 | 5.38764 | 81 ft | 8 kts | 124° |
| 2026-04-18 10:17 | 51.45816 | 5.38858 | 80 ft | 5 kts | 36° |
| 2026-04-18 10:17 | 51.45808 | 5.38929 | 84 ft | 9 kts | 126° |
| 2026-04-18 10:17 | 51.45789 | 5.38973 | 81 ft | 3 kts | 125° |
| 2026-04-18 10:17 | 51.45788 | 5.38975 | 81 ft | 0 kts | 124° |